sensor_id;sensor_type;location;lat;lon;timestamp;temperature;humidity
11991;DHT22;6055;52.522;13.446;2022-09-09T00:00:13;15.80;99.90
11991;DHT22;6055;52.522;13.446;2022-09-09T00:02:46;15.80;99.90
11991;DHT22;6055;52.522;13.446;2022-09-09T00:05:59;15.80;99.90
11991;DHT22;6055;52.522;13.446;2022-09-09T00:08:24;15.70;99.90
11991;DHT22;6055;52.522;13.446;2022-09-09T00:10:59;15.70;99.90
11991;DHT22;6055;52.522;13.446;2022-09-09T00:16:10;15.70;99.90
11991;DHT22;6055;52.522;13.446;2022-09-09T00:18:57;15.70;99.90
11991;DHT22;6055;52.522;13.446;2022-09-09T00:21:33;15.70;99.90
11991;DHT22;6055;52.522;13.446;2022-09-09T00:23:59;15.70;99.90
11991;DHT22;6055;52.522;13.446;2022-09-09T00:26:48;15.60;99.90
11991;DHT22;6055;52.522;13.446;2022-09-09T00:29:25;15.70;99.90
11991;DHT22;6055;52.522;13.446;2022-09-09T00:31:55;15.60;99.90
11991;DHT22;6055;52.522;13.446;2022-09-09T00:34:24;15.60;99.90
11991;DHT22;6055;52.522;13.446;2022-09-09T00:36:52;15.60;99.90
11991;DHT22;6055;52.522;13.446;2022-09-09T00:39:32;15.60;99.90
11991;DHT22;6055;52.522;13.446;2022-09-09T00:42:20;15.60;99.90
11991;DHT22;6055;52.522;13.446;2022-09-09T00:47:39;15.50;99.90
11991;DHT22;6055;52.522;13.446;2022-09-09T00:50:43;15.50;99.90
11991;DHT22;6055;52.522;13.446;2022-09-09T00:53:23;15.50;99.90
11991;DHT22;6055;52.522;13.446;2022-09-09T00:56:09;15.50;99.90
11991;DHT22;6055;52.522;13.446;2022-09-09T00:58:36;15.50;99.90
11991;DHT22;6055;52.522;13.446;2022-09-09T01:01:09;15.50;99.90
11991;DHT22;6055;52.522;13.446;2022-09-09T01:06:34;15.50;99.90
11991;DHT22;6055;52.522;13.446;2022-09-09T01:09:18;15.50;99.90
11991;DHT22;6055;52.522;13.446;2022-09-09T01:12:11;15.50;99.90
11991;DHT22;6055;52.522;13.446;2022-09-09T01:14:47;15.40;99.90
11991;DHT22;6055;52.522;13.446;2022-09-09T01:17:32;15.40;99.90
11991;DHT22;6055;52.522;13.446;2022-09-09T01:22:40;15.40;99.90
11991;DHT22;6055;52.522;13.446;2022-09-09T01:28:22;15.30;99.90
11991;DHT22;6055;52.522;13.446;2022-09-09T01:30:50;15.30;99.90
11991;DHT22;6055;52.522;13.446;2022-09-09T01:33:17;15.30;99.90
11991;DHT22;6055;52.522;13.446;2022-09-09T01:38:25;15.30;99.90
11991;DHT22;6055;52.522;13.446;2022-09-09T01:40:53;15.20;99.90
11991;DHT22;6055;52.522;13.446;2022-09-09T01:43:23;15.20;99.90
11991;DHT22;6055;52.522;13.446;2022-09-09T01:45:52;15.20;99.90
11991;DHT22;6055;52.522;13.446;2022-09-09T01:48:21;15.20;99.90
11991;DHT22;6055;52.522;13.446;2022-09-09T01:50:48;15.20;99.90
11991;DHT22;6055;52.522;13.446;2022-09-09T01:53:15;15.20;99.90
11991;DHT22;6055;52.522;13.446;2022-09-09T01:55:46;15.20;99.90
11991;DHT22;6055;52.522;13.446;2022-09-09T02:00:54;15.20;99.90
11991;DHT22;6055;52.522;13.446;2022-09-09T02:03:27;15.10;99.90
11991;DHT22;6055;52.522;13.446;2022-09-09T02:06:09;15.10;99.90
11991;DHT22;6055;52.522;13.446;2022-09-09T02:08:46;15.10;99.90
11991;DHT22;6055;52.522;13.446;2022-09-09T02:11:15;15.10;99.90
11991;DHT22;6055;52.522;13.446;2022-09-09T02:13:43;15.10;99.90
11991;DHT22;6055;52.522;13.446;2022-09-09T02:16:26;15.10;99.90
11991;DHT22;6055;52.522;13.446;2022-09-09T02:21:26;15.10;99.90
11991;DHT22;6055;52.522;13.446;2022-09-09T02:23:55;15.10;99.90
11991;DHT22;6055;52.522;13.446;2022-09-09T02:26:23;15.10;99.90
11991;DHT22;6055;52.522;13.446;2022-09-09T02:28:51;15.00;99.90
11991;DHT22;6055;52.522;13.446;2022-09-09T02:31:22;15.00;99.90
11991;DHT22;6055;52.522;13.446;2022-09-09T02:33:55;15.00;99.90
11991;DHT22;6055;52.522;13.446;2022-09-09T02:36:24;15.00;99.90
11991;DHT22;6055;52.522;13.446;2022-09-09T02:38:51;15.00;99.90
11991;DHT22;6055;52.522;13.446;2022-09-09T02:41:31;15.00;99.90
11991;DHT22;6055;52.522;13.446;2022-09-09T02:43:57;14.90;99.90
11991;DHT22;6055;52.522;13.446;2022-09-09T02:49:06;15.00;99.90
11991;DHT22;6055;52.522;13.446;2022-09-09T02:52:01;14.90;99.90
11991;DHT22;6055;52.522;13.446;2022-09-09T02:54:32;14.90;99.90
11991;DHT22;6055;52.522;13.446;2022-09-09T02:57:23;14.90;99.90
11991;DHT22;6055;52.522;13.446;2022-09-09T02:59:51;14.90;99.90
11991;DHT22;6055;52.522;13.446;2022-09-09T03:02:17;14.90;99.90
11991;DHT22;6055;52.522;13.446;2022-09-09T03:04:44;14.90;99.90
11991;DHT22;6055;52.522;13.446;2022-09-09T03:07:10;14.80;99.90
11991;DHT22;6055;52.522;13.446;2022-09-09T03:09:37;14.80;99.90
11991;DHT22;6055;52.522;13.446;2022-09-09T03:12:03;14.80;99.90
11991;DHT22;6055;52.522;13.446;2022-09-09T03:14:32;14.80;99.90
11991;DHT22;6055;52.522;13.446;2022-09-09T03:16:58;14.80;99.90
11991;DHT22;6055;52.522;13.446;2022-09-09T03:19:26;14.80;99.90
11991;DHT22;6055;52.522;13.446;2022-09-09T03:21:53;14.80;99.90
11991;DHT22;6055;52.522;13.446;2022-09-09T03:24:19;14.80;99.90
11991;DHT22;6055;52.522;13.446;2022-09-09T03:26:45;14.80;99.90
11991;DHT22;6055;52.522;13.446;2022-09-09T03:29:11;14.80;99.90
11991;DHT22;6055;52.522;13.446;2022-09-09T03:31:38;14.70;99.90
11991;DHT22;6055;52.522;13.446;2022-09-09T03:34:04;14.70;99.90
11991;DHT22;6055;52.522;13.446;2022-09-09T03:36:30;14.70;99.90
11991;DHT22;6055;52.522;13.446;2022-09-09T03:38:56;14.70;99.90
11991;DHT22;6055;52.522;13.446;2022-09-09T03:41:22;14.70;99.90
11991;DHT22;6055;52.522;13.446;2022-09-09T03:43:50;14.70;99.90
11991;DHT22;6055;52.522;13.446;2022-09-09T03:46:17;14.70;99.90
11991;DHT22;6055;52.522;13.446;2022-09-09T03:48:42;14.70;99.90
11991;DHT22;6055;52.522;13.446;2022-09-09T03:51:08;14.70;99.90
11991;DHT22;6055;52.522;13.446;2022-09-09T03:53:33;14.70;99.90
11991;DHT22;6055;52.522;13.446;2022-09-09T03:55:59;14.70;99.90
11991;DHT22;6055;52.522;13.446;2022-09-09T03:58:26;14.60;99.90
11991;DHT22;6055;52.522;13.446;2022-09-09T04:01:00;14.60;99.90
11991;DHT22;6055;52.522;13.446;2022-09-09T04:03:26;14.60;99.90
11991;DHT22;6055;52.522;13.446;2022-09-09T04:05:52;14.60;99.90
11991;DHT22;6055;52.522;13.446;2022-09-09T04:08:19;14.60;99.90
11991;DHT22;6055;52.522;13.446;2022-09-09T04:10:47;14.60;99.90
11991;DHT22;6055;52.522;13.446;2022-09-09T04:13:13;14.60;99.90
11991;DHT22;6055;52.522;13.446;2022-09-09T04:15:41;14.60;99.90
11991;DHT22;6055;52.522;13.446;2022-09-09T04:18:07;14.50;99.90
11991;DHT22;6055;52.522;13.446;2022-09-09T04:20:33;14.60;99.90
11991;DHT22;6055;52.522;13.446;2022-09-09T04:22:59;14.60;99.90
11991;DHT22;6055;52.522;13.446;2022-09-09T04:25:25;14.60;99.90
11991;DHT22;6055;52.522;13.446;2022-09-09T04:27:54;14.60;99.90
11991;DHT22;6055;52.522;13.446;2022-09-09T04:30:20;14.50;99.90
11991;DHT22;6055;52.522;13.446;2022-09-09T04:32:46;14.50;99.90
11991;DHT22;6055;52.522;13.446;2022-09-09T04:35:12;14.60;99.90
11991;DHT22;6055;52.522;13.446;2022-09-09T04:37:37;14.50;99.90
11991;DHT22;6055;52.522;13.446;2022-09-09T04:40:03;14.60;99.90
11991;DHT22;6055;52.522;13.446;2022-09-09T04:42:29;14.50;99.90
11991;DHT22;6055;52.522;13.446;2022-09-09T04:44:55;14.50;99.90
11991;DHT22;6055;52.522;13.446;2022-09-09T04:47:20;14.50;99.90
11991;DHT22;6055;52.522;13.446;2022-09-09T04:49:46;14.60;99.90
11991;DHT22;6055;52.522;13.446;2022-09-09T04:52:13;14.60;99.90
11991;DHT22;6055;52.522;13.446;2022-09-09T04:54:38;14.60;99.90
11991;DHT22;6055;52.522;13.446;2022-09-09T04:57:07;14.60;99.90
11991;DHT22;6055;52.522;13.446;2022-09-09T04:59:32;14.60;99.90
11991;DHT22;6055;52.522;13.446;2022-09-09T05:01:58;14.60;99.90
11991;DHT22;6055;52.522;13.446;2022-09-09T05:04:24;14.70;99.90
11991;DHT22;6055;52.522;13.446;2022-09-09T05:06:49;14.70;99.90
11991;DHT22;6055;52.522;13.446;2022-09-09T05:09:15;14.70;99.90
11991;DHT22;6055;52.522;13.446;2022-09-09T05:11:41;14.70;99.90
11991;DHT22;6055;52.522;13.446;2022-09-09T05:14:07;14.70;99.90
11991;DHT22;6055;52.522;13.446;2022-09-09T05:16:32;14.70;99.90
11991;DHT22;6055;52.522;13.446;2022-09-09T05:18:58;14.80;99.90
11991;DHT22;6055;52.522;13.446;2022-09-09T05:21:24;14.80;99.90
11991;DHT22;6055;52.522;13.446;2022-09-09T05:23:53;14.80;99.90
11991;DHT22;6055;52.522;13.446;2022-09-09T05:26:20;14.80;99.90
11991;DHT22;6055;52.522;13.446;2022-09-09T05:28:47;14.80;99.90
11991;DHT22;6055;52.522;13.446;2022-09-09T05:31:14;14.90;99.90
11991;DHT22;6055;52.522;13.446;2022-09-09T05:33:41;14.90;99.90
11991;DHT22;6055;52.522;13.446;2022-09-09T05:36:10;14.90;99.90
11991;DHT22;6055;52.522;13.446;2022-09-09T05:38:38;14.90;99.90
11991;DHT22;6055;52.522;13.446;2022-09-09T05:41:04;15.00;99.90
11991;DHT22;6055;52.522;13.446;2022-09-09T05:43:30;14.90;99.90
11991;DHT22;6055;52.522;13.446;2022-09-09T05:46:14;14.90;99.90
11991;DHT22;6055;52.522;13.446;2022-09-09T05:48:41;15.00;99.90
11991;DHT22;6055;52.522;13.446;2022-09-09T05:51:11;15.00;99.90
11991;DHT22;6055;52.522;13.446;2022-09-09T05:53:44;15.00;99.90
11991;DHT22;6055;52.522;13.446;2022-09-09T05:56:12;15.10;99.90
11991;DHT22;6055;52.522;13.446;2022-09-09T05:58:40;15.10;99.90
11991;DHT22;6055;52.522;13.446;2022-09-09T06:01:06;15.10;99.90
11991;DHT22;6055;52.522;13.446;2022-09-09T06:03:34;15.10;99.90
11991;DHT22;6055;52.522;13.446;2022-09-09T06:06:02;15.10;99.90
11991;DHT22;6055;52.522;13.446;2022-09-09T06:08:30;15.20;99.90
11991;DHT22;6055;52.522;13.446;2022-09-09T06:11:01;15.20;99.90
11991;DHT22;6055;52.522;13.446;2022-09-09T06:13:27;15.20;99.90
11991;DHT22;6055;52.522;13.446;2022-09-09T06:15:53;15.30;99.90
11991;DHT22;6055;52.522;13.446;2022-09-09T06:18:19;15.30;99.90
11991;DHT22;6055;52.522;13.446;2022-09-09T06:21:01;15.30;99.90
11991;DHT22;6055;52.522;13.446;2022-09-09T06:23:28;15.30;99.90
11991;DHT22;6055;52.522;13.446;2022-09-09T06:26:05;15.40;99.90
11991;DHT22;6055;52.522;13.446;2022-09-09T06:28:35;15.50;99.90
11991;DHT22;6055;52.522;13.446;2022-09-09T06:31:01;15.50;99.90
11991;DHT22;6055;52.522;13.446;2022-09-09T06:33:32;15.50;99.90
11991;DHT22;6055;52.522;13.446;2022-09-09T06:36:00;15.50;99.90
11991;DHT22;6055;52.522;13.446;2022-09-09T06:38:27;15.50;99.90
11991;DHT22;6055;52.522;13.446;2022-09-09T06:40:58;15.60;99.90
11991;DHT22;6055;52.522;13.446;2022-09-09T06:43:27;15.60;99.90
11991;DHT22;6055;52.522;13.446;2022-09-09T06:45:58;15.70;99.90
11991;DHT22;6055;52.522;13.446;2022-09-09T06:48:24;15.80;99.90
11991;DHT22;6055;52.522;13.446;2022-09-09T06:51:04;15.80;99.90
11991;DHT22;6055;52.522;13.446;2022-09-09T06:53:31;15.90;99.90
11991;DHT22;6055;52.522;13.446;2022-09-09T06:55:59;15.90;99.90
11991;DHT22;6055;52.522;13.446;2022-09-09T06:58:26;16.00;99.90
11991;DHT22;6055;52.522;13.446;2022-09-09T07:00:52;16.10;99.90
11991;DHT22;6055;52.522;13.446;2022-09-09T07:03:18;16.10;99.90
11991;DHT22;6055;52.522;13.446;2022-09-09T07:05:43;16.10;99.90
11991;DHT22;6055;52.522;13.446;2022-09-09T07:08:18;16.10;99.90
11991;DHT22;6055;52.522;13.446;2022-09-09T07:10:44;16.10;99.90
11991;DHT22;6055;52.522;13.446;2022-09-09T07:13:09;16.20;99.90
11991;DHT22;6055;52.522;13.446;2022-09-09T07:15:35;16.20;99.90
11991;DHT22;6055;52.522;13.446;2022-09-09T07:18:01;16.30;99.90
11991;DHT22;6055;52.522;13.446;2022-09-09T07:20:27;16.40;99.90
11991;DHT22;6055;52.522;13.446;2022-09-09T07:22:55;16.50;99.90
11991;DHT22;6055;52.522;13.446;2022-09-09T07:25:21;16.60;99.90
11991;DHT22;6055;52.522;13.446;2022-09-09T07:27:47;16.60;99.90
11991;DHT22;6055;52.522;13.446;2022-09-09T07:30:12;16.70;99.90
11991;DHT22;6055;52.522;13.446;2022-09-09T07:32:38;16.70;99.90
11991;DHT22;6055;52.522;13.446;2022-09-09T07:35:05;16.80;99.90
11991;DHT22;6055;52.522;13.446;2022-09-09T07:37:30;16.90;99.90
11991;DHT22;6055;52.522;13.446;2022-09-09T07:39:56;16.90;99.90
11991;DHT22;6055;52.522;13.446;2022-09-09T07:42:21;16.90;99.90
11991;DHT22;6055;52.522;13.446;2022-09-09T07:44:47;17.00;99.90
11991;DHT22;6055;52.522;13.446;2022-09-09T07:47:13;17.10;99.90
11991;DHT22;6055;52.522;13.446;2022-09-09T07:49:38;17.20;99.90
11991;DHT22;6055;52.522;13.446;2022-09-09T07:52:04;17.30;99.90
11991;DHT22;6055;52.522;13.446;2022-09-09T07:54:29;17.40;99.90
11991;DHT22;6055;52.522;13.446;2022-09-09T07:56:55;17.60;99.90
11991;DHT22;6055;52.522;13.446;2022-09-09T07:59:21;17.70;99.90
11991;DHT22;6055;52.522;13.446;2022-09-09T08:01:52;17.80;99.90
11991;DHT22;6055;52.522;13.446;2022-09-09T08:04:20;17.90;99.90
11991;DHT22;6055;52.522;13.446;2022-09-09T08:06:52;18.00;99.90
11991;DHT22;6055;52.522;13.446;2022-09-09T08:09:18;18.10;99.90
11991;DHT22;6055;52.522;13.446;2022-09-09T08:11:44;18.00;99.90
11991;DHT22;6055;52.522;13.446;2022-09-09T08:14:11;18.00;99.90
11991;DHT22;6055;52.522;13.446;2022-09-09T08:16:40;18.00;99.90
11991;DHT22;6055;52.522;13.446;2022-09-09T08:19:06;18.00;99.90
11991;DHT22;6055;52.522;13.446;2022-09-09T08:21:33;18.00;99.90
11991;DHT22;6055;52.522;13.446;2022-09-09T08:24:01;18.00;99.90
11991;DHT22;6055;52.522;13.446;2022-09-09T08:26:29;18.00;99.90
11991;DHT22;6055;52.522;13.446;2022-09-09T08:28:56;18.00;99.90
11991;DHT22;6055;52.522;13.446;2022-09-09T08:31:27;18.00;99.90
11991;DHT22;6055;52.522;13.446;2022-09-09T08:33:54;18.00;99.90
11991;DHT22;6055;52.522;13.446;2022-09-09T08:36:23;18.00;99.90
11991;DHT22;6055;52.522;13.446;2022-09-09T08:38:50;18.10;99.90
11991;DHT22;6055;52.522;13.446;2022-09-09T08:43:48;18.20;99.90
11991;DHT22;6055;52.522;13.446;2022-09-09T08:46:27;18.20;99.90
11991;DHT22;6055;52.522;13.446;2022-09-09T08:49:04;18.30;99.90
11991;DHT22;6055;52.522;13.446;2022-09-09T08:51:32;18.40;99.90
11991;DHT22;6055;52.522;13.446;2022-09-09T08:53:59;18.50;99.90
11991;DHT22;6055;52.522;13.446;2022-09-09T08:56:27;18.60;99.90
11991;DHT22;6055;52.522;13.446;2022-09-09T08:58:56;18.70;99.90
11991;DHT22;6055;52.522;13.446;2022-09-09T09:01:48;18.80;99.90
11991;DHT22;6055;52.522;13.446;2022-09-09T09:07:21;18.90;99.90
11991;DHT22;6055;52.522;13.446;2022-09-09T09:12:22;19.10;99.90
11991;DHT22;6055;52.522;13.446;2022-09-09T09:14:49;19.10;99.90
11991;DHT22;6055;52.522;13.446;2022-09-09T09:17:20;19.30;99.90
11991;DHT22;6055;52.522;13.446;2022-09-09T09:19:47;19.50;99.90
11991;DHT22;6055;52.522;13.446;2022-09-09T09:22:20;19.80;99.90
11991;DHT22;6055;52.522;13.446;2022-09-09T09:27:36;20.10;99.90
11991;DHT22;6055;52.522;13.446;2022-09-09T09:30:15;20.10;99.90
11991;DHT22;6055;52.522;13.446;2022-09-09T09:33:11;20.20;99.90
11991;DHT22;6055;52.522;13.446;2022-09-09T09:35:37;20.20;99.90
11991;DHT22;6055;52.522;13.446;2022-09-09T09:38:19;20.10;99.90
11991;DHT22;6055;52.522;13.446;2022-09-09T09:40:58;20.00;99.90
11991;DHT22;6055;52.522;13.446;2022-09-09T09:43:36;20.00;99.90
11991;DHT22;6055;52.522;13.446;2022-09-09T09:46:05;20.00;99.90
11991;DHT22;6055;52.522;13.446;2022-09-09T09:48:31;19.90;99.90
11991;DHT22;6055;52.522;13.446;2022-09-09T09:50:58;19.80;99.90
11991;DHT22;6055;52.522;13.446;2022-09-09T09:53:34;19.80;99.90
11991;DHT22;6055;52.522;13.446;2022-09-09T09:56:09;19.60;99.90
11991;DHT22;6055;52.522;13.446;2022-09-09T09:58:50;19.50;99.90
11991;DHT22;6055;52.522;13.446;2022-09-09T10:01:27;19.50;99.90
11991;DHT22;6055;52.522;13.446;2022-09-09T10:03:58;19.60;99.90
11991;DHT22;6055;52.522;13.446;2022-09-09T10:06:32;19.80;99.90
11991;DHT22;6055;52.522;13.446;2022-09-09T10:08:59;20.20;99.90
11991;DHT22;6055;52.522;13.446;2022-09-09T10:11:52;20.40;99.90
11991;DHT22;6055;52.522;13.446;2022-09-09T10:15:10;20.60;99.90
11991;DHT22;6055;52.522;13.446;2022-09-09T10:36:26;22.20;99.90
11991;DHT22;6055;52.522;13.446;2022-09-09T10:39:04;22.60;99.90
11991;DHT22;6055;52.522;13.446;2022-09-09T10:41:44;22.70;99.90
11991;DHT22;6055;52.522;13.446;2022-09-09T10:44:18;22.50;99.90
11991;DHT22;6055;52.522;13.446;2022-09-09T10:50:07;22.30;99.90
11991;DHT22;6055;52.522;13.446;2022-09-09T10:55:43;22.50;99.90
11991;DHT22;6055;52.522;13.446;2022-09-09T10:58:14;23.00;99.90
11991;DHT22;6055;52.522;13.446;2022-09-09T11:00:45;23.60;99.90
11991;DHT22;6055;52.522;13.446;2022-09-09T11:03:31;24.70;99.90
11991;DHT22;6055;52.522;13.446;2022-09-09T11:06:05;26.30;99.90
11991;DHT22;6055;52.522;13.446;2022-09-09T11:08:34;27.40;99.90
11991;DHT22;6055;52.522;13.446;2022-09-09T11:11:04;28.40;95.30
11991;DHT22;6055;52.522;13.446;2022-09-09T11:16:30;29.90;90.00
11991;DHT22;6055;52.522;13.446;2022-09-09T11:19:11;30.40;86.60
11991;DHT22;6055;52.522;13.446;2022-09-09T11:21:48;30.00;86.30
11991;DHT22;6055;52.522;13.446;2022-09-09T11:24:19;28.90;87.80
11991;DHT22;6055;52.522;13.446;2022-09-09T11:26:55;28.10;90.50
11991;DHT22;6055;52.522;13.446;2022-09-09T11:30:00;27.50;94.80
11991;DHT22;6055;52.522;13.446;2022-09-09T11:35:46;26.20;96.20
11991;DHT22;6055;52.522;13.446;2022-09-09T11:38:38;25.30;99.10
11991;DHT22;6055;52.522;13.446;2022-09-09T11:41:09;24.40;99.90
11991;DHT22;6055;52.522;13.446;2022-09-09T11:43:42;23.60;99.90
11991;DHT22;6055;52.522;13.446;2022-09-09T11:46:08;23.00;99.90
11991;DHT22;6055;52.522;13.446;2022-09-09T11:48:40;23.10;99.90
11991;DHT22;6055;52.522;13.446;2022-09-09T11:51:13;24.40;99.90
11991;DHT22;6055;52.522;13.446;2022-09-09T11:54:00;25.90;99.90
11991;DHT22;6055;52.522;13.446;2022-09-09T11:56:32;25.60;99.20
11991;DHT22;6055;52.522;13.446;2022-09-09T11:59:06;24.80;99.90
11991;DHT22;6055;52.522;13.446;2022-09-09T12:01:43;24.40;99.90
11991;DHT22;6055;52.522;13.446;2022-09-09T12:04:31;24.30;99.90
11991;DHT22;6055;52.522;13.446;2022-09-09T12:09:56;26.00;98.40
11991;DHT22;6055;52.522;13.446;2022-09-09T12:12:34;26.90;96.80
11991;DHT22;6055;52.522;13.446;2022-09-09T12:17:58;28.80;92.00
11991;DHT22;6055;52.522;13.446;2022-09-09T12:20:51;29.40;90.10
11991;DHT22;6055;52.522;13.446;2022-09-09T12:23:31;29.60;89.00
11991;DHT22;6055;52.522;13.446;2022-09-09T12:31:39;29.20;90.60
11991;DHT22;6055;52.522;13.446;2022-09-09T12:42:47;27.80;92.20
11991;DHT22;6055;52.522;13.446;2022-09-09T12:45:21;27.50;93.50
11991;DHT22;6055;52.522;13.446;2022-09-09T12:47:53;27.10;92.20
11991;DHT22;6055;52.522;13.446;2022-09-09T12:50:25;26.50;92.40
11991;DHT22;6055;52.522;13.446;2022-09-09T12:52:59;26.00;94.60
11991;DHT22;6055;52.522;13.446;2022-09-09T12:55:31;25.40;96.50
11991;DHT22;6055;52.522;13.446;2022-09-09T12:57:59;24.90;97.30
11991;DHT22;6055;52.522;13.446;2022-09-09T13:00:26;24.70;98.60
11991;DHT22;6055;52.522;13.446;2022-09-09T13:02:57;24.50;99.80
11991;DHT22;6055;52.522;13.446;2022-09-09T13:05:34;24.40;99.90
11991;DHT22;6055;52.522;13.446;2022-09-09T13:08:11;24.40;99.90
11991;DHT22;6055;52.522;13.446;2022-09-09T13:10:57;24.20;99.90
11991;DHT22;6055;52.522;13.446;2022-09-09T13:13:30;24.10;99.90
11991;DHT22;6055;52.522;13.446;2022-09-09T13:15:59;23.90;99.90
11991;DHT22;6055;52.522;13.446;2022-09-09T13:18:34;23.80;99.90
11991;DHT22;6055;52.522;13.446;2022-09-09T13:21:00;23.60;99.90
11991;DHT22;6055;52.522;13.446;2022-09-09T13:23:36;23.50;99.90
11991;DHT22;6055;52.522;13.446;2022-09-09T13:26:25;23.40;99.90
11991;DHT22;6055;52.522;13.446;2022-09-09T13:28:53;23.40;99.90
11991;DHT22;6055;52.522;13.446;2022-09-09T13:31:24;23.20;99.90
11991;DHT22;6055;52.522;13.446;2022-09-09T13:33:53;23.10;99.90
11991;DHT22;6055;52.522;13.446;2022-09-09T13:36:31;23.10;99.90
11991;DHT22;6055;52.522;13.446;2022-09-09T13:38:58;23.30;99.90
11991;DHT22;6055;52.522;13.446;2022-09-09T13:41:33;23.60;99.90
11991;DHT22;6055;52.522;13.446;2022-09-09T13:44:01;24.00;99.90
11991;DHT22;6055;52.522;13.446;2022-09-09T13:46:36;24.20;99.90
11991;DHT22;6055;52.522;13.446;2022-09-09T13:49:19;24.70;99.70
11991;DHT22;6055;52.522;13.446;2022-09-09T13:51:50;25.30;99.10
11991;DHT22;6055;52.522;13.446;2022-09-09T13:54:19;25.80;95.90
11991;DHT22;6055;52.522;13.446;2022-09-09T13:56:45;25.80;95.50
11991;DHT22;6055;52.522;13.446;2022-09-09T13:59:15;25.80;95.00
11991;DHT22;6055;52.522;13.446;2022-09-09T14:01:41;25.80;94.70
11991;DHT22;6055;52.522;13.446;2022-09-09T14:04:07;25.90;95.50
11991;DHT22;6055;52.522;13.446;2022-09-09T14:06:33;25.50;95.60
11991;DHT22;6055;52.522;13.446;2022-09-09T14:09:00;25.40;95.30
11991;DHT22;6055;52.522;13.446;2022-09-09T14:11:26;25.30;95.00
11991;DHT22;6055;52.522;13.446;2022-09-09T14:13:51;25.10;95.70
11991;DHT22;6055;52.522;13.446;2022-09-09T14:16:17;24.60;97.80
11991;DHT22;6055;52.522;13.446;2022-09-09T14:18:46;24.40;98.10
11991;DHT22;6055;52.522;13.446;2022-09-09T14:21:12;24.40;98.50
11991;DHT22;6055;52.522;13.446;2022-09-09T14:23:38;24.50;98.30
11991;DHT22;6055;52.522;13.446;2022-09-09T14:26:08;24.90;98.40
11991;DHT22;6055;52.522;13.446;2022-09-09T14:28:35;25.40;99.90
11991;DHT22;6055;52.522;13.446;2022-09-09T14:31:03;25.90;98.00
11991;DHT22;6055;52.522;13.446;2022-09-09T14:33:29;26.20;97.90
11991;DHT22;6055;52.522;13.446;2022-09-09T14:35:56;26.60;96.50
11991;DHT22;6055;52.522;13.446;2022-09-09T14:38:22;26.80;95.30
11991;DHT22;6055;52.522;13.446;2022-09-09T14:40:48;27.10;94.60
11991;DHT22;6055;52.522;13.446;2022-09-09T14:43:13;27.20;94.50
11991;DHT22;6055;52.522;13.446;2022-09-09T14:45:39;27.20;93.20
11991;DHT22;6055;52.522;13.446;2022-09-09T14:48:05;26.80;93.60
11991;DHT22;6055;52.522;13.446;2022-09-09T14:50:30;26.40;94.40
11991;DHT22;6055;52.522;13.446;2022-09-09T14:52:56;25.90;95.00
11991;DHT22;6055;52.522;13.446;2022-09-09T14:55:21;25.40;95.90
11991;DHT22;6055;52.522;13.446;2022-09-09T14:57:47;24.90;97.50
11991;DHT22;6055;52.522;13.446;2022-09-09T15:00:13;24.20;99.40
11991;DHT22;6055;52.522;13.446;2022-09-09T15:02:38;23.70;99.90
11991;DHT22;6055;52.522;13.446;2022-09-09T15:05:05;23.40;99.90
11991;DHT22;6055;52.522;13.446;2022-09-09T15:07:30;23.20;99.90
11991;DHT22;6055;52.522;13.446;2022-09-09T15:09:57;23.00;99.90
11991;DHT22;6055;52.522;13.446;2022-09-09T15:12:23;22.90;99.90
11991;DHT22;6055;52.522;13.446;2022-09-09T15:14:49;22.90;99.90
11991;DHT22;6055;52.522;13.446;2022-09-09T15:17:15;22.90;99.90
11991;DHT22;6055;52.522;13.446;2022-09-09T15:19:41;23.00;99.90
11991;DHT22;6055;52.522;13.446;2022-09-09T15:22:08;23.20;99.90
11991;DHT22;6055;52.522;13.446;2022-09-09T15:24:34;23.80;99.90
11991;DHT22;6055;52.522;13.446;2022-09-09T15:27:00;24.40;99.40
11991;DHT22;6055;52.522;13.446;2022-09-09T15:29:26;25.00;95.40
11991;DHT22;6055;52.522;13.446;2022-09-09T15:31:53;25.40;94.60
11991;DHT22;6055;52.522;13.446;2022-09-09T15:34:19;25.80;91.50
11991;DHT22;6055;52.522;13.446;2022-09-09T15:36:45;25.70;90.70
11991;DHT22;6055;52.522;13.446;2022-09-09T15:39:13;25.50;90.80
11991;DHT22;6055;52.522;13.446;2022-09-09T15:41:41;25.30;91.70
11991;DHT22;6055;52.522;13.446;2022-09-09T15:44:07;25.10;92.40
11991;DHT22;6055;52.522;13.446;2022-09-09T15:46:36;24.90;92.90
11991;DHT22;6055;52.522;13.446;2022-09-09T15:51:36;24.30;93.00
11991;DHT22;6055;52.522;13.446;2022-09-09T15:54:02;24.20;93.70
11991;DHT22;6055;52.522;13.446;2022-09-09T15:56:29;24.20;94.10
11991;DHT22;6055;52.522;13.446;2022-09-09T15:58:56;24.20;94.30
11991;DHT22;6055;52.522;13.446;2022-09-09T16:01:23;24.20;94.90
11991;DHT22;6055;52.522;13.446;2022-09-09T16:03:49;24.50;95.30
11991;DHT22;6055;52.522;13.446;2022-09-09T16:06:18;24.70;94.80
11991;DHT22;6055;52.522;13.446;2022-09-09T16:08:45;24.90;94.40
11991;DHT22;6055;52.522;13.446;2022-09-09T16:11:20;24.80;95.20
11991;DHT22;6055;52.522;13.446;2022-09-09T16:13:47;24.60;96.20
11991;DHT22;6055;52.522;13.446;2022-09-09T16:16:15;24.40;95.90
11991;DHT22;6055;52.522;13.446;2022-09-09T16:18:44;24.10;95.90
11991;DHT22;6055;52.522;13.446;2022-09-09T16:21:31;23.90;96.10
11991;DHT22;6055;52.522;13.446;2022-09-09T16:23:58;23.60;96.50
11991;DHT22;6055;52.522;13.446;2022-09-09T16:26:25;23.40;97.50
11991;DHT22;6055;52.522;13.446;2022-09-09T16:28:51;23.20;98.40
11991;DHT22;6055;52.522;13.446;2022-09-09T16:31:19;23.10;99.00
11991;DHT22;6055;52.522;13.446;2022-09-09T16:33:45;22.90;99.30
11991;DHT22;6055;52.522;13.446;2022-09-09T16:36:14;22.70;99.90
11991;DHT22;6055;52.522;13.446;2022-09-09T16:38:39;22.60;99.90
11991;DHT22;6055;52.522;13.446;2022-09-09T16:41:06;22.40;99.90
11991;DHT22;6055;52.522;13.446;2022-09-09T16:43:33;22.30;99.90
11991;DHT22;6055;52.522;13.446;2022-09-09T16:45:59;22.20;99.90
11991;DHT22;6055;52.522;13.446;2022-09-09T16:48:33;22.10;99.90
11991;DHT22;6055;52.522;13.446;2022-09-09T16:51:07;22.00;99.90
11991;DHT22;6055;52.522;13.446;2022-09-09T16:53:34;21.90;99.90
11991;DHT22;6055;52.522;13.446;2022-09-09T16:56:14;21.80;99.90
11991;DHT22;6055;52.522;13.446;2022-09-09T16:58:41;21.70;99.90
11991;DHT22;6055;52.522;13.446;2022-09-09T17:01:08;21.70;99.90
11991;DHT22;6055;52.522;13.446;2022-09-09T17:03:35;21.60;99.90
11991;DHT22;6055;52.522;13.446;2022-09-09T17:06:02;21.60;99.90
11991;DHT22;6055;52.522;13.446;2022-09-09T17:08:31;21.50;99.90
11991;DHT22;6055;52.522;13.446;2022-09-09T17:10:58;21.40;99.90
11991;DHT22;6055;52.522;13.446;2022-09-09T17:13:24;21.40;99.90
11991;DHT22;6055;52.522;13.446;2022-09-09T17:15:50;21.30;99.90
11991;DHT22;6055;52.522;13.446;2022-09-09T17:18:16;21.30;99.90